Time;durP1;ratioP1;P1;durP2;ratioP2;P2;SDS_P1;SDS_P2;PMS_P1;PMS_P2;Temp;Humidity;BMP_temperature;BMP_pressure;BME280_temperature;BME280_humidity;BME280_pressure;Samples;Min_cycle;Max_cycle;Signal;HPM_P1;HPM_P2
2021/08/21 00:00:34;;;;;;;6.83;6.23;;;;;;;12.16;100.00;98305.72;5044377;28;20723;-68
2021/08/21 00:03:02;;;;;;;6.53;6.03;;;;;;;12.13;100.00;98309.53;5048833;28;20644;-68
2021/08/21 00:05:30;;;;;;;5.90;5.50;;;;;;;12.13;100.00;98306.88;5046383;28;20208;-69
2021/08/21 00:07:58;;;;;;;6.03;5.43;;;;;;;12.10;100.00;98307.22;5043331;28;20825;-69
2021/08/21 00:10:28;;;;;;;6.60;6.20;;;;;;;12.06;100.00;98311.22;5046996;28;20250;-68
2021/08/21 00:12:56;;;;;;;6.87;6.40;;;;;;;12.04;100.00;98307.88;5051860;28;20522;-68
2021/08/21 00:15:26;;;;;;;5.57;5.17;;;;;;;12.11;100.00;98308.88;5050571;28;20207;-68
2021/08/21 00:17:55;;;;;;;6.30;5.70;;;;;;;12.15;100.00;98299.56;5048626;28;20212;-68
2021/08/21 00:20:23;;;;;;;5.70;5.30;;;;;;;12.18;100.00;98302.91;5048043;28;20314;-67
2021/08/21 00:22:51;;;;;;;5.67;5.27;;;;;;;12.07;100.00;98304.91;5054969;28;20587;-68
2021/08/21 00:25:19;;;;;;;6.20;5.70;;;;;;;11.98;100.00;98306.69;5050513;28;20680;-67
2021/08/21 00:27:47;;;;;;;6.70;5.47;;;;;;;11.93;100.00;98305.50;5051269;28;20206;-69
2021/08/21 00:30:16;;;;;;;6.50;5.90;;;;;;;11.91;100.00;98299.53;5055216;28;20223;-68
2021/08/21 00:32:45;;;;;;;7.40;5.80;;;;;;;11.87;100.00;98299.03;5056230;28;20594;-69
2021/08/21 00:35:14;;;;;;;5.87;5.37;;;;;;;11.96;100.00;98306.03;5055840;28;20485;-68
2021/08/21 00:37:42;;;;;;;6.37;5.97;;;;;;;11.88;100.00;98298.06;5057616;28;20203;-69
2021/08/21 00:40:10;;;;;;;5.40;5.00;;;;;;;11.86;100.00;98306.16;5056409;28;20266;-68
2021/08/21 00:42:38;;;;;;;5.43;5.13;;;;;;;11.81;100.00;98303.19;5057303;28;20506;-66
2021/08/21 00:45:07;;;;;;;5.80;5.30;;;;;;;11.73;100.00;98297.88;5052565;28;20215;-68
2021/08/21 00:47:35;;;;;;;8.10;5.47;;;;;;;11.72;100.00;98296.22;5054609;28;20218;-68
2021/08/21 00:50:05;;;;;;;6.27;5.77;;;;;;;11.69;100.00;98296.53;5052441;28;20239;-68
2021/08/21 00:52:35;;;;;;;5.67;5.13;;;;;;;11.63;100.00;98295.34;5057617;28;20203;-69
2021/08/21 00:55:03;;;;;;;5.90;5.50;;;;;;;11.67;100.00;98293.22;5056147;28;20597;-68
2021/08/21 00:57:32;;;;;;;5.83;5.43;;;;;;;11.79;100.00;98291.09;5058772;28;20660;-68
2021/08/21 01:00:00;;;;;;;5.40;5.10;;;;;;;11.76;100.00;98289.56;5056251;28;20219;-68
2021/08/21 01:02:29;;;;;;;5.63;5.17;;;;;;;11.61;100.00;98285.91;5055498;28;20215;-68
2021/08/21 01:04:58;;;;;;;5.83;5.33;;;;;;;11.55;100.00;98288.22;5055124;28;20246;-69
2021/08/21 01:07:29;;;;;;;5.97;5.47;;;;;;;11.51;100.00;98286.88;5053037;28;20199;-68
2021/08/21 01:10:00;;;;;;;6.10;5.60;;;;;;;11.50;100.00;98287.88;5058442;28;20223;-67
2021/08/21 01:12:29;;;;;;;6.07;5.53;;;;;;;11.43;100.00;98284.19;5055236;28;20214;-66
2021/08/21 01:14:57;;;;;;;6.00;5.50;;;;;;;11.46;100.00;98283.88;5057311;28;20225;-67
2021/08/21 01:17:25;;;;;;;5.87;5.40;;;;;;;11.48;100.00;98291.69;5055265;28;20711;-67
2021/08/21 01:19:53;;;;;;;5.77;5.27;;;;;;;11.42;100.00;98286.03;5052544;28;20309;-68
2021/08/21 01:22:24;;;;;;;6.13;5.70;;;;;;;11.36;100.00;98284.00;5059680;28;20222;-66
2021/08/21 01:24:54;;;;;;;5.87;5.47;;;;;;;11.33;100.00;98289.63;5049424;28;20198;-68
2021/08/21 01:27:25;;;;;;;6.37;5.87;;;;;;;11.32;100.00;98280.03;5047673;28;20219;-66
2021/08/21 01:29:54;;;;;;;5.33;4.93;;;;;;;11.33;100.00;98286.19;5058591;28;20713;-68
2021/08/21 01:32:23;;;;;;;6.07;5.57;;;;;;;11.34;100.00;98293.13;5055122;28;20203;-67
2021/08/21 01:34:52;;;;;;;5.17;4.77;;;;;;;11.33;100.00;98288.81;5057040;28;20206;-68
2021/08/21 01:37:22;;;;;;;6.13;5.60;;;;;;;11.38;100.00;98289.16;5046099;28;20200;-66
2021/08/21 01:39:51;;;;;;;5.63;5.23;;;;;;;11.35;100.00;98281.53;5052943;28;20626;-69
2021/08/21 01:42:19;;;;;;;5.57;5.10;;;;;;;11.40;100.00;98284.53;5060169;28;20276;-67
2021/08/21 01:44:49;;;;;;;4.73;4.33;;;;;;;11.29;100.00;98291.81;5053227;28;20198;-68
2021/08/21 01:47:17;;;;;;;5.63;5.13;;;;;;;11.26;100.00;98283.31;5055496;28;20214;-68
2021/08/21 01:49:51;;;;;;;5.60;5.03;;;;;;;11.26;100.00;98297.44;5052962;28;20215;-68
2021/08/21 01:52:19;;;;;;;5.77;5.37;;;;;;;11.23;100.00;98287.16;5048615;28;20546;-68
2021/08/21 01:54:47;;;;;;;5.43;4.93;;;;;;;11.30;100.00;98292.63;5052811;28;20199;-68
2021/08/21 01:57:15;;;;;;;5.70;5.20;;;;;;;11.37;100.00;98295.47;5058956;28;20206;-68
2021/08/21 01:59:44;;;;;;;5.23;4.93;;;;;;;11.47;100.00;98290.84;5052662;28;20203;-68
2021/08/21 02:02:16;;;;;;;6.10;5.60;;;;;;;11.55;100.00;98284.72;5056706;28;20203;-68
2021/08/21 02:04:44;;;;;;;6.13;5.50;;;;;;;11.51;100.00;98286.88;5048542;28;20993;-68
2021/08/21 02:07:12;;;;;;;5.97;5.57;;;;;;;11.42;100.00;98280.72;5052333;28;20203;-68
2021/08/21 02:09:40;;;;;;;5.63;5.07;;;;;;;11.44;100.00;98289.38;5056267;28;20206;-69
2021/08/21 02:12:08;;;;;;;5.30;4.93;;;;;;;11.44;100.00;98284.06;5049213;28;20842;-68
2021/08/21 02:14:36;;;;;;;5.90;5.50;;;;;;;11.44;100.00;98284.06;5054300;28;20210;-67
2021/08/21 02:17:04;;;;;;;6.20;5.50;;;;;;;11.34;100.00;98279.88;5052437;28;20203;-66
2021/08/21 02:19:34;;;;;;;6.40;5.80;;;;;;;11.27;100.00;98288.47;5049200;28;20215;-67
2021/08/21 02:22:03;;;;;;;6.30;5.90;;;;;;;11.26;100.00;98297.44;5057088;28;20206;-68
2021/08/21 02:24:33;;;;;;;6.00;5.60;;;;;;;11.27;100.00;98290.28;5051557;28;20230;-68
2021/08/21 02:27:03;;;;;;;6.63;6.03;;;;;;;11.29;100.00;98286.50;5051110;28;20211;-68
2021/08/21 02:29:31;;;;;;;6.20;5.77;;;;;;;11.31;100.00;98286.31;5046541;28;20212;-68
2021/08/21 02:32:00;;;;;;;5.17;4.77;;;;;;;11.16;100.00;98283.44;5049531;28;20650;-67
2021/08/21 02:34:29;;;;;;;5.60;5.20;;;;;;;11.16;100.00;98288.75;5053129;28;20212;-68
2021/08/21 02:36:59;;;;;;;6.70;6.20;;;;;;;11.12;100.00;98284.78;5051205;28;20200;-68
2021/08/21 02:39:26;;;;;;;6.07;5.60;;;;;;;11.06;100.00;98283.59;5049008;28;20203;-67
2021/08/21 02:41:54;;;;;;;6.17;5.67;;;;;;;11.08;100.00;98280.78;5052559;28;20207;-69
2021/08/21 02:44:22;;;;;;;5.90;5.40;;;;;;;11.06;100.00;98283.59;5054874;28;20210;-68
2021/08/21 02:46:51;;;;;;;6.40;5.97;;;;;;;11.06;100.00;98277.47;5052442;28;20210;-67
2021/08/21 02:49:19;;;;;;;5.73;5.33;;;;;;;11.00;100.00;98274.47;5053319;28;20375;-68
2021/08/21 02:51:47;;;;;;;6.27;5.73;;;;;;;11.00;100.00;98277.13;5048268;28;20573;-69
2021/08/21 02:54:16;;;;;;;5.77;5.37;;;;;;;11.13;100.00;98279.31;5055564;28;20458;-68
2021/08/21 02:56:44;;;;;;;5.77;5.30;;;;;;;11.19;100.00;98277.00;5050953;28;20540;-68
2021/08/21 02:59:12;;;;;;;6.00;5.60;;;;;;;11.24;100.00;98275.53;5050416;28;20230;-69
2021/08/21 03:01:40;;;;;;;5.70;5.20;;;;;;;11.22;100.00;98269.56;5059752;28;20233;-69
2021/08/21 03:04:08;;;;;;;5.57;5.17;;;;;;;11.13;100.00;98271.38;5048208;28;20993;-67
2021/08/21 03:06:36;;;;;;;5.57;5.17;;;;;;;11.09;100.00;98274.47;5039985;28;20212;-67
2021/08/21 03:09:04;;;;;;;5.70;5.30;;;;;;;11.09;100.00;98269.19;5052529;28;20199;-68
2021/08/21 03:11:33;;;;;;;5.37;4.80;;;;;;;11.15;100.00;98269.38;5055810;28;20453;-68
2021/08/21 03:14:01;;;;;;;6.20;5.60;;;;;;;11.05;100.00;98273.16;5051207;28;20207;-67
2021/08/21 03:16:29;;;;;;;5.47;5.07;;;;;;;11.01;100.00;98272.66;5054847;28;20223;-66
2021/08/21 03:18:57;;;;;;;6.13;5.30;;;;;;;10.99;100.00;98274.63;5043816;28;20624;-68
2021/08/21 03:21:25;;;;;;;6.27;5.77;;;;;;;10.98;100.00;98276.44;5055214;28;20526;-68
2021/08/21 03:23:53;;;;;;;5.80;5.30;;;;;;;10.95;100.00;98281.22;5053894;28;20203;-66
2021/08/21 03:26:21;;;;;;;5.80;5.40;;;;;;;10.95;100.00;98279.41;5047369;28;20211;-66
2021/08/21 03:28:50;;;;;;;5.50;5.10;;;;;;;11.08;100.00;98284.28;5052868;28;20697;-67
2021/08/21 03:31:18;;;;;;;5.10;4.80;;;;;;;10.92;100.00;98274.44;5046090;28;20239;-69
2021/08/21 03:33:46;;;;;;;5.87;5.37;;;;;;;10.92;100.00;98276.25;5057953;28;20370;-69
2021/08/21 03:36:14;;;;;;;5.60;5.20;;;;;;;10.90;100.00;98279.06;5057599;28;20229;-68
2021/08/21 03:38:42;;;;;;;5.87;5.47;;;;;;;10.90;100.00;98267.63;5050065;28;20205;-68
2021/08/21 03:41:10;;;;;;;5.57;5.17;;;;;;;10.85;100.00;98268.94;5048801;28;20707;-69
2021/08/21 03:43:38;;;;;;;5.70;5.20;;;;;;;10.87;100.00;98266.13;5053584;28;20659;-68
2021/08/21 03:46:07;;;;;;;5.30;5.00;;;;;;;10.86;100.00;98275.06;5048656;28;20522;-68
2021/08/21 03:48:35;;;;;;;5.70;5.30;;;;;;;10.86;100.00;98278.53;5053820;28;20517;-67
2021/08/21 03:51:03;;;;;;;6.27;5.77;;;;;;;10.83;100.00;98278.84;5054055;28;20636;-68
2021/08/21 03:53:31;;;;;;;5.60;5.20;;;;;;;10.84;100.00;98277.06;5047134;28;20227;-68
2021/08/21 03:55:59;;;;;;;6.43;5.90;;;;;;;10.87;100.00;98274.09;5046062;28;20215;-68
2021/08/21 03:58:27;;;;;;;5.50;5.10;;;;;;;10.95;100.00;98271.47;5049689;28;20214;-68
2021/08/21 04:00:55;;;;;;;6.17;5.67;;;;;;;10.98;100.00;98275.59;5045103;28;20608;-65
2021/08/21 04:03:24;;;;;;;5.77;5.37;;;;;;;10.94;100.00;98279.56;5059484;28;20207;-68
2021/08/21 04:05:52;;;;;;;5.60;5.20;;;;;;;10.88;100.00;98272.25;5047007;28;20658;-68
2021/08/21 04:08:20;;;;;;;5.67;5.27;;;;;;;10.92;100.00;98279.72;5053665;28;20212;-67
2021/08/21 04:10:48;;;;;;;5.33;4.83;;;;;;;10.83;100.00;98281.50;5052518;28;20222;-68
2021/08/21 04:13:16;;;;;;;6.60;6.03;;;;;;;10.81;100.00;98282.69;5049695;28;20770;-66
2021/08/21 04:15:44;;;;;;;5.23;4.83;;;;;;;10.79;100.00;98287.28;5059360;28;20663;-68
2021/08/21 04:18:12;;;;;;;6.43;5.83;;;;;;;10.87;100.00;98292.63;5051143;28;20214;-68
2021/08/21 04:20:42;;;;;;;5.17;4.80;;;;;;;10.95;100.00;98291.81;5050060;28;20229;-68
2021/08/21 04:23:09;;;;;;;5.03;4.67;;;;;;;11.03;100.00;98288.38;5051980;28;20465;-68
2021/08/21 04:25:37;;;;;;;5.80;5.40;;;;;;;11.23;100.00;98294.25;5050240;28;20211;-67
2021/08/21 04:28:05;;;;;;;5.40;5.10;;;;;;;11.36;100.00;98293.81;5050307;28;20203;-68
2021/08/21 04:30:33;;;;;;;5.77;5.33;;;;;;;11.35;100.00;98292.97;5052600;28;20227;-68
2021/08/21 04:33:01;;;;;;;5.40;5.00;;;;;;;11.37;100.00;98300.78;5050254;28;20305;-68
2021/08/21 04:35:29;;;;;;;5.27;4.97;;;;;;;11.41;100.00;98289.69;5048625;28;20210;-66
2021/08/21 04:38:01;;;;;;;5.70;5.30;;;;;;;11.38;100.00;98291.81;5050922;28;20207;-67
2021/08/21 04:40:29;;;;;;;5.47;5.03;;;;;;;11.35;100.00;98300.09;5051336;28;20231;-67
2021/08/21 04:42:57;;;;;;;5.87;5.47;;;;;;;11.33;100.00;98286.19;5050545;28;20221;-66
2021/08/21 04:45:25;;;;;;;6.60;6.00;;;;;;;11.40;100.00;98303.09;5050783;28;20258;-67
2021/08/21 04:47:53;;;;;;;5.83;5.37;;;;;;;11.37;100.00;98306.09;5054470;28;20214;-68
2021/08/21 04:50:22;;;;;;;6.30;5.70;;;;;;;11.42;100.00;98301.13;5048103;28;20229;-68
2021/08/21 04:52:50;;;;;;;6.30;5.90;;;;;;;11.43;100.00;98306.28;5051247;28;20429;-69
2021/08/21 04:55:19;;;;;;;5.00;4.70;;;;;;;11.47;100.00;98313.91;5052183;28;20203;-68
2021/08/21 04:57:49;;;;;;;5.77;5.37;;;;;;;11.60;100.00;98302.84;5046113;28;20202;-69
2021/08/21 05:00:17;;;;;;;6.93;6.33;;;;;;;11.72;100.00;98306.81;5050340;28;20297;-69
2021/08/21 05:02:45;;;;;;;6.17;5.57;;;;;;;11.66;100.00;98310.13;5047456;28;20285;-69
2021/08/21 05:05:13;;;;;;;5.40;4.90;;;;;;;11.81;100.00;98316.47;5055002;28;20283;-69
2021/08/21 05:07:45;;;;;;;5.50;5.10;;;;;;;11.92;100.00;98312.66;5052438;28;20214;-69
2021/08/21 05:10:13;;;;;;;6.03;5.43;;;;;;;11.88;100.00;98306.84;5045741;28;20219;-69
2021/08/21 05:12:42;;;;;;;5.30;4.80;;;;;;;11.92;100.00;98319.78;5052727;28;20519;-70
2021/08/21 05:15:11;;;;;;;5.50;5.10;;;;;;;11.95;100.00;98319.47;5058126;28;20210;-69
2021/08/21 05:17:39;;;;;;;6.00;5.50;;;;;;;12.07;100.00;98318.19;5056933;28;20212;-71
2021/08/21 05:20:14;;;;;;;5.87;5.47;;;;;;;12.21;100.00;98318.50;5050563;28;20228;-69
2021/08/21 05:22:49;;;;;;;6.67;5.83;;;;;;;12.14;100.00;98319.16;5052756;28;20205;-69
2021/08/21 05:25:18;;;;;;;6.07;5.57;;;;;;;12.26;100.00;98322.34;5051918;28;20414;-69
2021/08/21 05:27:49;;;;;;;6.10;5.57;;;;;;;12.38;100.00;98321.97;5051010;28;20225;-68
2021/08/21 05:30:18;;;;;;;6.50;6.00;;;;;;;12.42;100.00;98318.00;5052344;28;20735;-68
2021/08/21 05:32:45;;;;;;;8.33;6.37;;;;;;;12.42;100.00;98320.66;5052015;28;20225;-68
2021/08/21 05:35:15;;;;;;;7.10;6.50;;;;;;;12.47;100.00;98317.50;5048520;28;20606;-67
2021/08/21 05:37:43;;;;;;;6.80;6.20;;;;;;;12.40;100.00;98315.50;5059860;28;20202;-68
2021/08/21 05:40:12;;;;;;;6.60;6.10;;;;;;;12.65;100.00;98318.13;5056279;28;20265;-68
2021/08/21 05:42:39;;;;;;;6.07;5.67;;;;;;;12.60;100.00;98320.47;5062915;28;20206;-68
2021/08/21 05:45:10;;;;;;;6.37;5.87;;;;;;;12.76;100.00;98318.78;5049643;28;20211;-67
2021/08/21 05:47:38;;;;;;;7.23;6.63;;;;;;;12.95;100.00;98318.38;5054493;28;20207;-68
2021/08/21 05:50:07;;;;;;;6.40;5.80;;;;;;;12.95;100.00;98320.22;5050475;28;20230;-68
2021/08/21 05:52:35;;;;;;;7.07;6.47;;;;;;;13.07;100.00;98320.66;5055612;28;20246;-68
2021/08/21 05:55:03;;;;;;;8.03;7.37;;;;;;;13.18;100.00;98315.78;5057168;28;20208;-69
2021/08/21 05:57:31;;;;;;;7.60;7.03;;;;;;;13.32;100.00;98314.22;5059919;28;20788;-68
2021/08/21 05:59:59;;;;;;;7.57;6.97;;;;;;;13.17;100.00;98308.81;5051627;28;20235;-68
2021/08/21 06:02:28;;;;;;;6.80;6.40;;;;;;;13.08;100.00;98314.38;5050814;28;20215;-68
2021/08/21 06:04:57;;;;;;;7.77;7.07;;;;;;;13.33;100.00;98328.38;5049893;28;20611;-69
2021/08/21 06:07:25;;;;;;;7.30;6.60;;;;;;;13.40;100.00;98326.69;5050355;28;20364;-68
2021/08/21 06:09:53;;;;;;;7.83;7.13;;;;;;;13.50;100.00;98326.50;5050098;28;20241;-68
2021/08/21 06:12:21;;;;;;;7.30;6.80;;;;;;;13.41;100.00;98338.16;5052839;28;20207;-67
2021/08/21 06:14:49;;;;;;;7.73;7.13;;;;;;;13.41;100.00;98324.84;5050982;28;20212;-69
2021/08/21 06:17:17;;;;;;;7.13;6.63;;;;;;;13.54;100.00;98329.63;5051653;28;20716;-68
2021/08/21 06:19:46;;;;;;;8.33;7.63;;;;;;;13.55;100.00;98331.28;5049406;28;20206;-69
2021/08/21 06:22:14;;;;;;;7.87;7.27;;;;;;;13.48;100.00;98331.19;5055957;28;20218;-68
2021/08/21 06:24:42;;;;;;;7.97;7.27;;;;;;;13.54;100.00;98326.97;5052931;28;20206;-68
2021/08/21 06:27:10;;;;;;;8.10;7.50;;;;;;;13.76;100.00;98325.34;5047837;28;20588;-68
2021/08/21 06:29:38;;;;;;;8.77;7.87;;;;;;;13.96;100.00;98331.03;5052239;28;20218;-68
2021/08/21 06:32:07;;;;;;;7.97;7.37;;;;;;;13.85;100.00;98320.78;5049174;28;20575;-69
2021/08/21 06:34:35;;;;;;;7.90;7.30;;;;;;;13.95;100.00;98328.56;5049396;28;20227;-68
2021/08/21 06:37:06;;;;;;;7.67;7.17;;;;;;;14.25;100.00;98326.81;5051406;28;20214;-68
2021/08/21 06:39:34;;;;;;;7.93;7.37;;;;;;;14.32;100.00;98330.41;5054477;28;20207;-69
2021/08/21 06:42:03;;;;;;;8.13;7.43;;;;;;;14.50;100.00;98329.28;5050142;28;20218;-68
2021/08/21 06:44:31;;;;;;;8.30;7.70;;;;;;;14.87;100.00;98326.75;5050227;28;20208;-68
2021/08/21 06:46:59;;;;;;;8.10;7.50;;;;;;;15.01;100.00;98333.13;5049467;28;20212;-68
2021/08/21 06:49:27;;;;;;;7.77;7.23;;;;;;;15.20;100.00;98334.41;5046750;28;20325;-69
2021/08/21 06:51:55;;;;;;;8.37;7.87;;;;;;;15.41;100.00;98322.94;5052271;28;20223;-68
2021/08/21 06:54:28;;;;;;;8.07;7.47;;;;;;;15.61;100.00;98325.84;5059737;28;20253;-68
2021/08/21 06:56:56;;;;;;;8.03;7.27;;;;;;;15.89;100.00;98327.81;5052101;28;20211;-68
2021/08/21 06:59:24;;;;;;;7.80;7.00;;;;;;;15.90;100.00;98329.47;5050402;28;20688;-69
2021/08/21 07:01:52;;;;;;;8.30;7.70;;;;;;;16.01;100.00;98324.63;5052981;28;20415;-68
2021/08/21 07:04:20;;;;;;;8.03;7.37;;;;;;;16.12;100.00;98334.84;5053435;28;20591;-67
2021/08/21 07:06:48;;;;;;;8.53;7.40;;;;;;;16.06;100.00;98332.91;5049415;28;20210;-68
2021/08/21 07:09:16;;;;;;;8.60;7.73;;;;;;;16.16;100.00;98332.59;5052331;28;20691;-67
2021/08/21 07:11:45;;;;;;;8.93;8.10;;;;;;;16.13;100.00;98330.31;5049836;28;20583;-69
2021/08/21 07:14:13;;;;;;;7.60;6.73;;;;;;;16.36;100.00;98332.75;5052999;28;20219;-68
2021/08/21 07:16:41;;;;;;;9.03;7.63;;;;;;;16.56;100.00;98334.78;5057084;28;20241;-68
2021/08/21 07:19:09;;;;;;;7.63;7.03;;;;;;;16.63;100.00;98327.63;5047452;28;20244;-69
2021/08/21 07:21:37;;;;;;;8.03;7.27;;;;;;;16.71;100.00;98332.81;5052633;28;20723;-69
2021/08/21 07:24:05;;;;;;;8.10;7.30;;;;;;;16.89;100.00;98332.31;5048521;28;20195;-68
2021/08/21 07:26:34;;;;;;;7.53;6.93;;;;;;;16.91;100.00;98334.81;5052916;28;20226;-69
2021/08/21 07:29:04;;;;;;;8.50;7.73;;;;;;;16.84;100.00;98333.91;5049501;28;20200;-69
2021/08/21 07:31:32;;;;;;;7.30;6.80;;;;;;;17.10;100.00;98327.94;5049070;28;20465;-68
2021/08/21 07:34:00;;;;;;;7.57;6.97;;;;;;;17.38;100.00;98340.41;5049426;28;20231;-69
2021/08/21 07:36:28;;;;;;;7.27;6.77;;;;;;;17.56;100.00;98334.50;5048739;28;20212;-68
2021/08/21 07:38:56;;;;;;;7.27;6.77;;;;;;;17.97;100.00;98330.09;5051141;28;20208;-69
2021/08/21 07:41:24;;;;;;;7.53;6.97;;;;;;;18.19;100.00;98330.78;5050346;28;20707;-69
2021/08/21 07:43:52;;;;;;;8.30;6.47;;;;;;;18.63;100.00;98335.72;5053097;28;21169;-69
2021/08/21 07:46:22;;;;;;;8.33;7.50;;;;;;;18.79;100.00;98343.34;5052449;28;20688;-68
2021/08/21 07:48:50;;;;;;;7.03;6.30;;;;;;;18.76;100.00;98341.09;5049550;28;20204;-69
2021/08/21 07:51:18;;;;;;;6.93;6.43;;;;;;;19.06;100.00;98339.81;5049754;28;20227;-68
2021/08/21 07:53:46;;;;;;;7.47;6.87;;;;;;;19.03;100.00;98337.56;5049427;28;20226;-69
2021/08/21 07:56:13;;;;;;;6.67;6.07;;;;;;;19.48;100.00;98340.28;5049295;28;20203;-69
2021/08/21 07:58:41;;;;;;;6.47;5.97;;;;;;;19.18;100.00;98342.69;5054058;28;20210;-68
2021/08/21 08:01:09;;;;;;;6.50;5.90;;;;;;;19.14;100.00;98338.78;5044993;28;20227;-69
2021/08/21 08:03:39;;;;;;;6.57;6.07;;;;;;;19.17;100.00;98346.41;5051370;28;20199;-68
2021/08/21 08:06:07;;;;;;;6.57;5.97;;;;;;;18.93;100.00;98341.44;5055497;28;20208;-69
2021/08/21 08:08:35;;;;;;;5.40;5.00;;;;;;;19.18;100.00;98343.50;5054271;28;20214;-70
2021/08/21 08:11:03;;;;;;;5.27;4.87;;;;;;;19.13;100.00;98340.63;5050854;28;20230;-69
2021/08/21 08:13:31;;;;;;;5.53;5.13;;;;;;;19.40;100.00;98340.53;5053025;28;20217;-68
2021/08/21 08:15:59;;;;;;;5.83;5.43;;;;;;;19.61;100.00;98346.63;5051984;28;20231;-69
2021/08/21 08:18:27;;;;;;;6.20;5.60;;;;;;;19.70;100.00;98334.63;5052362;28;20297;-70
2021/08/21 08:20:57;;;;;;;6.20;5.73;;;;;;;19.80;100.00;98334.13;5048465;28;20242;-69
2021/08/21 08:23:25;;;;;;;8.23;5.40;;;;;;;20.08;100.00;98336.47;5047629;28;20215;-69
2021/08/21 08:25:53;;;;;;;5.50;5.00;;;;;;;20.03;100.00;98332.78;5053060;28;20226;-69
2021/08/21 08:28:25;;;;;;;6.87;5.27;;;;;;;20.24;100.00;98334.28;5049523;28;20218;-70
2021/08/21 08:30:54;;;;;;;6.13;5.53;;;;;;;20.32;100.00;98338.59;5047876;28;20238;-69
2021/08/21 08:33:22;;;;;;;4.73;4.33;;;;;;;20.28;100.00;98330.13;5054005;28;20222;-69
2021/08/21 08:35:51;;;;;;;5.67;5.20;;;;;;;20.49;100.00;98336.19;5048770;28;20238;-69
2021/08/21 08:38:21;;;;;;;4.87;4.47;;;;;;;20.59;100.00;98333.81;5053125;28;20195;-68
2021/08/21 08:40:49;;;;;;;5.10;4.70;;;;;;;20.63;99.85;98326.94;5043234;28;20230;-69
2021/08/21 08:43:19;;;;;;;4.87;4.57;;;;;;;20.86;99.34;98325.50;5050595;28;20200;-69
2021/08/21 08:45:47;;;;;;;4.63;4.23;;;;;;;21.03;97.65;98325.75;5052083;28;20422;-69
2021/08/21 08:48:15;;;;;;;4.90;4.60;;;;;;;21.30;95.37;98322.72;5049442;28;20204;-69
2021/08/21 08:50:44;;;;;;;5.63;5.13;;;;;;;21.39;96.61;98329.44;5051824;28;20656;-69
2021/08/21 08:53:12;;;;;;;5.27;4.87;;;;;;;21.48;93.40;98326.47;5056670;28;20586;-69
2021/08/21 08:55:41;;;;;;;5.23;4.83;;;;;;;21.72;91.25;98321.19;5053627;28;20433;-69
2021/08/21 08:58:09;;;;;;;5.57;3.97;;;;;;;21.76;91.94;98319.69;5052217;28;20199;-69
2021/08/21 09:00:37;;;;;;;4.53;4.23;;;;;;;22.07;89.25;98315.94;5052914;28;20227;-70
2021/08/21 09:03:05;;;;;;;6.20;5.80;;;;;;;22.17;88.09;98326.16;5050699;28;20207;-69
2021/08/21 09:05:40;;;;;;;6.37;5.50;;;;;;;22.30;88.20;98321.59;5057855;28;20207;-69
2021/08/21 09:08:20;;;;;;;6.80;5.93;;;;;;;22.42;90.18;98317.03;5049827;28;20663;-70
2021/08/21 09:10:49;;;;;;;6.30;5.80;;;;;;;22.44;88.77;98317.59;5051590;28;20960;-68
2021/08/21 09:13:18;;;;;;;5.63;5.10;;;;;;;22.47;90.65;98316.38;5051531;28;20211;-69
2021/08/21 09:15:48;;;;;;;5.03;4.70;;;;;;;22.33;90.04;98316.53;5051903;28;20218;-69
2021/08/21 09:18:17;;;;;;;5.23;4.87;;;;;;;22.38;89.20;98310.44;5050052;28;20711;-69
2021/08/21 09:20:57;;;;;;;4.87;4.47;;;;;;;22.57;86.84;98318.50;5046605;28;20706;-70
2021/08/21 09:23:28;;;;;;;5.27;4.87;;;;;;;22.67;87.60;98316.00;5054167;28;20340;-69
2021/08/21 09:26:05;;;;;;;5.47;5.13;;;;;;;23.00;87.16;98320.00;5058303;28;20573;-69
2021/08/21 09:28:33;;;;;;;5.70;5.10;;;;;;;23.28;81.57;98318.41;5050876;28;20203;-69
2021/08/21 09:31:03;;;;;;;5.20;4.70;;;;;;;23.53;78.80;98320.00;5052837;28;20336;-68
2021/08/21 09:33:32;;;;;;;4.60;4.30;;;;;;;23.39;80.51;98314.88;5058053;28;20547;-68
2021/08/21 09:36:00;;;;;;;4.70;4.30;;;;;;;23.66;78.10;98314.28;5045472;28;20216;-69
2021/08/21 09:38:29;;;;;;;4.90;4.47;;;;;;;23.91;80.63;98318.53;5057523;28;20200;-70
2021/08/21 09:41:04;;;;;;;5.13;4.57;;;;;;;23.77;76.89;98314.50;5048129;28;20223;-70
2021/08/21 09:43:34;;;;;;;4.83;4.53;;;;;;;23.70;74.67;98317.34;5058659;28;20202;-69
2021/08/21 09:46:16;;;;;;;5.13;4.83;;;;;;;24.05;71.33;98312.84;5055872;28;20205;-70
2021/08/21 09:49:01;;;;;;;4.47;4.17;;;;;;;23.87;75.51;98303.84;5055471;28;20763;-69
2021/08/21 09:51:36;;;;;;;4.47;3.77;;;;;;;23.84;75.35;98298.94;5052868;28;20730;-70
2021/08/21 09:54:06;;;;;;;5.40;5.10;;;;;;;23.83;71.63;98303.50;5045377;28;20214;-69
2021/08/21 09:56:37;;;;;;;5.20;4.83;;;;;;;23.75;71.24;98298.50;5049792;28;20687;-69
2021/08/21 09:59:06;;;;;;;4.00;3.73;;;;;;;23.62;74.34;98296.91;5052301;28;20207;-69
2021/08/21 10:01:34;;;;;;;4.87;4.47;;;;;;;23.81;72.87;98296.72;5048503;28;20231;-68
2021/08/21 10:04:05;;;;;;;3.87;3.53;;;;;;;23.94;74.53;98290.19;5055017;28;20226;-69
2021/08/21 10:06:33;;;;;;;4.83;4.50;;;;;;;24.16;69.47;98289.47;5049341;28;20594;-70
2021/08/21 10:09:05;;;;;;;4.60;4.30;;;;;;;24.07;72.13;98292.59;5054802;28;20200;-69
2021/08/21 10:11:35;;;;;;;4.57;4.27;;;;;;;24.12;72.54;98292.66;5053692;28;20247;-69
2021/08/21 10:14:03;;;;;;;4.00;3.80;;;;;;;24.19;70.84;98291.69;5051512;28;20678;-70
2021/08/21 10:16:31;;;;;;;4.30;3.90;;;;;;;24.65;67.42;98291.59;5053899;28;20360;-70
2021/08/21 10:19:00;;;;;;;4.87;4.53;;;;;;;24.48;67.65;98284.31;5048945;28;20199;-69
2021/08/21 10:21:28;;;;;;;4.50;4.20;;;;;;;24.24;64.98;98289.88;5051373;28;20407;-70
2021/08/21 10:23:56;;;;;;;3.97;3.67;;;;;;;24.17;69.54;98281.13;5054516;28;20207;-69
2021/08/21 10:26:33;;;;;;;4.43;3.80;;;;;;;24.37;71.53;98279.78;5052759;28;20215;-70
2021/08/21 10:29:10;;;;;;;4.13;3.83;;;;;;;24.38;67.79;98278.72;5047524;28;20735;-69
2021/08/21 10:31:40;;;;;;;3.73;3.43;;;;;;;24.34;69.25;98274.88;5054279;28;20238;-70
2021/08/21 10:34:10;;;;;;;4.67;4.20;;;;;;;24.75;68.22;98280.91;5048667;28;20211;-69
2021/08/21 10:36:44;;;;;;;5.00;4.70;;;;;;;24.64;67.20;98271.81;5057581;28;20622;-69
2021/08/21 10:39:17;;;;;;;4.43;4.10;;;;;;;24.88;69.06;98276.22;5049906;28;20639;-69
2021/08/21 10:41:45;;;;;;;4.20;3.90;;;;;;;24.99;62.83;98269.84;5052850;28;20218;-69
2021/08/21 10:44:40;;;;;;;5.70;3.87;;;;;;;25.10;60.72;98274.31;5049106;28;20696;-70
2021/08/21 10:47:08;;;;;;;3.67;3.47;;;;;;;25.47;61.13;98275.59;5047615;28;20210;-70
2021/08/21 10:49:47;;;;;;;4.20;4.00;;;;;;;25.87;53.82;98273.53;5052173;28;20216;-69
2021/08/21 10:52:46;;;;;;;4.30;4.00;;;;;;;25.69;54.49;98263.84;5048813;28;20237;-70
2021/08/21 10:55:17;;;;;;;5.13;3.83;;;;;;;25.90;55.37;98270.28;5053755;28;20231;-70
2021/08/21 10:58:05;;;;;;;3.67;3.47;;;;;;;26.41;56.99;98260.97;5056723;28;20297;-69
2021/08/21 11:01:03;;;;;;;3.73;3.50;;;;;;;26.42;53.28;98270.75;5049665;28;20228;-69
2021/08/21 11:03:53;;;;;;;3.63;3.43;;;;;;;26.63;54.36;98257.28;5049648;28;20749;-70
2021/08/21 11:06:38;;;;;;;3.70;3.50;;;;;;;26.61;55.02;98260.28;5050610;28;20195;-69
2021/08/21 11:09:11;;;;;;;3.30;3.10;;;;;;;26.58;53.04;98261.59;5056216;28;20203;-70
2021/08/21 11:11:42;;;;;;;3.50;3.30;;;;;;;26.62;50.57;98256.47;5052815;28;20231;-70
2021/08/21 11:14:26;;;;;;;3.77;3.50;;;;;;;27.25;50.26;98263.03;5047803;28;20203;-70
2021/08/21 11:16:59;;;;;;;3.63;3.33;;;;;;;27.10;50.04;98259.19;5048661;28;20694;-70
2021/08/21 11:19:39;;;;;;;3.70;3.40;;;;;;;27.06;53.21;98257.25;5049999;28;20626;-69
2021/08/21 11:22:18;;;;;;;3.43;3.23;;;;;;;26.86;49.31;98259.63;5047768;28;20599;-70
2021/08/21 11:25:10;;;;;;;3.70;3.40;;;;;;;26.91;50.13;98255.28;5048362;28;20211;-70
2021/08/21 11:27:42;;;;;;;3.33;3.13;;;;;;;27.37;48.94;98250.00;5049846;28;20425;-69
2021/08/21 11:30:24;;;;;;;3.70;3.33;;;;;;;27.65;48.00;98255.25;5049249;28;20234;-70
2021/08/21 11:33:01;;;;;;;3.57;3.37;;;;;;;28.17;44.21;98243.34;5044990;28;20564;-70
2021/08/21 11:35:32;;;;;;;3.80;3.60;;;;;;;27.56;46.72;98246.81;5046515;28;20361;-70
2021/08/21 11:38:02;;;;;;;3.73;3.53;;;;;;;27.63;45.88;98243.81;5051482;28;20202;-70